createdAt,value
2018-07-23T00:00:45.584Z,19.50
2018-07-23T00:03:13.640Z,19.50
2018-07-23T00:05:41.697Z,19.50
2018-07-23T00:08:09.736Z,19.50
2018-07-23T00:10:37.781Z,19.50
2018-07-23T00:13:05.828Z,19.40
2018-07-23T00:15:33.872Z,19.40
2018-07-23T00:18:01.920Z,19.40
2018-07-23T00:20:29.988Z,19.40
2018-07-23T00:22:58.051Z,19.40
2018-07-23T00:25:26.200Z,19.30
2018-07-23T00:27:54.268Z,19.30
2018-07-23T00:30:22.328Z,19.30
2018-07-23T00:32:50.396Z,19.20
2018-07-23T00:35:18.461Z,19.20
2018-07-23T00:37:46.528Z,19.20
2018-07-23T00:40:14.736Z,19.10
2018-07-23T00:42:42.861Z,19.10
2018-07-23T00:45:10.933Z,19.00
2018-07-23T00:47:39.207Z,19.00
2018-07-23T00:50:07.274Z,18.90
2018-07-23T00:52:35.895Z,18.80
2018-07-23T00:55:04.069Z,18.70
2018-07-23T00:57:32.261Z,18.60
2018-07-23T01:00:00.753Z,18.50
2018-07-23T01:02:28.843Z,18.50
2018-07-23T01:04:57.116Z,18.50
2018-07-23T01:07:25.364Z,18.50
2018-07-23T01:09:53.900Z,18.50
2018-07-23T01:12:29.780Z,18.50
2018-07-23T01:14:57.848Z,18.50
2018-07-23T01:17:25.900Z,18.50
2018-07-23T01:19:55.359Z,18.60
2018-07-23T01:22:24.460Z,18.60
2018-07-23T01:24:52.688Z,18.60
2018-07-23T01:27:20.847Z,18.60
2018-07-23T01:29:49.131Z,18.60
2018-07-23T01:32:17.524Z,18.60
2018-07-23T01:34:45.588Z,18.60
2018-07-23T01:37:13.665Z,18.60
2018-07-23T01:39:41.737Z,18.60
2018-07-23T01:42:09.943Z,18.50
2018-07-23T01:44:38.177Z,18.50
2018-07-23T01:47:07.056Z,18.50
2018-07-23T01:49:35.243Z,18.50
2018-07-23T01:52:03.637Z,18.50
2018-07-23T01:54:31.712Z,18.40
2018-07-23T01:57:00.070Z,18.40
2018-07-23T01:59:28.172Z,18.30
2018-07-23T02:01:56.376Z,18.30
2018-07-23T02:04:24.440Z,18.30
2018-07-23T02:06:52.504Z,18.30
2018-07-23T02:09:20.577Z,18.30
2018-07-23T02:11:48.632Z,18.30
2018-07-23T02:14:16.699Z,18.30
2018-07-23T02:16:44.765Z,18.30
2018-07-23T02:19:12.836Z,18.30
2018-07-23T02:21:40.892Z,18.20
2018-07-23T02:24:08.939Z,18.20
2018-07-23T02:26:36.984Z,18.20
2018-07-23T02:29:05.041Z,18.10
2018-07-23T02:31:33.081Z,18.10
2018-07-23T02:34:01.131Z,18.10
2018-07-23T02:36:29.184Z,18.00
2018-07-23T02:38:57.225Z,18.00
2018-07-23T02:41:25.268Z,17.90
2018-07-23T02:43:53.325Z,17.90
2018-07-23T02:46:21.377Z,17.90
2018-07-23T02:48:49.424Z,17.90
2018-07-23T02:51:17.464Z,17.90
2018-07-23T02:53:45.517Z,17.80
2018-07-23T02:56:13.560Z,17.80
2018-07-23T02:58:41.611Z,17.80
2018-07-23T03:01:09.664Z,17.80
2018-07-23T03:03:37.709Z,17.80
2018-07-23T03:06:05.749Z,17.80
2018-07-23T03:08:33.799Z,17.80
2018-07-23T03:11:01.860Z,17.80
2018-07-23T03:13:29.936Z,17.70
2018-07-23T03:15:57.999Z,17.70
2018-07-23T03:18:26.064Z,17.70
2018-07-23T03:20:54.154Z,17.60
2018-07-23T03:23:22.211Z,17.60
2018-07-23T03:25:50.284Z,17.60
2018-07-23T03:28:18.364Z,17.50
2018-07-23T03:30:46.433Z,17.50
2018-07-23T03:33:14.492Z,17.50
2018-07-23T03:35:42.561Z,17.40
2018-07-23T03:38:10.613Z,17.50
2018-07-23T03:40:38.675Z,17.40
2018-07-23T03:43:06.735Z,17.50
2018-07-23T03:45:34.809Z,17.50
2018-07-23T03:48:02.873Z,17.50
2018-07-23T03:50:30.936Z,17.50
2018-07-23T03:52:58.995Z,17.50
2018-07-23T03:55:27.072Z,17.50
2018-07-23T03:57:55.128Z,17.50
2018-07-23T04:00:23.202Z,17.50
2018-07-23T04:02:51.267Z,17.50
2018-07-23T04:05:19.332Z,17.50
2018-07-23T04:07:47.390Z,17.60
2018-07-23T04:10:15.464Z,17.50
2018-07-23T04:12:43.528Z,17.50
2018-07-23T04:15:11.628Z,17.50
2018-07-23T04:17:39.708Z,17.50
2018-07-23T04:20:07.788Z,17.60
2018-07-23T04:22:35.924Z,17.60
2018-07-23T04:25:03.972Z,17.60
2018-07-23T04:27:32.013Z,17.60
2018-07-23T04:30:00.067Z,17.70
2018-07-23T04:32:28.105Z,17.70
2018-07-23T04:34:56.157Z,17.70
2018-07-23T04:37:24.216Z,17.70
2018-07-23T04:39:52.268Z,17.80
2018-07-23T04:42:20.333Z,17.80
2018-07-23T04:44:48.383Z,17.90
2018-07-23T04:47:16.423Z,17.90
2018-07-23T04:49:44.481Z,18.00
2018-07-23T04:52:12.524Z,18.00
2018-07-23T04:54:40.569Z,18.00
2018-07-23T04:57:08.612Z,18.10
2018-07-23T04:59:36.656Z,18.20
2018-07-23T05:02:04.692Z,18.20
2018-07-23T05:07:00.584Z,18.40
2018-07-23T05:09:28.628Z,18.40
2018-07-23T05:11:56.676Z,18.50
2018-07-23T05:14:24.729Z,18.50
2018-07-23T05:16:52.767Z,18.50
2018-07-23T05:19:20.817Z,18.50
2018-07-23T05:21:48.873Z,18.60
2018-07-23T05:24:16.919Z,18.80
2018-07-23T05:26:44.959Z,18.80
2018-07-23T05:29:13.004Z,19.00
2018-07-23T05:31:41.086Z,19.10
2018-07-23T05:34:09.100Z,19.30
2018-07-23T05:36:37.156Z,19.30
2018-07-23T05:39:07.775Z,19.50
2018-07-23T05:41:35.824Z,19.70
2018-07-23T05:44:03.860Z,19.80
2018-07-23T05:48:59.757Z,19.90
2018-07-23T05:51:27.800Z,20.10
2018-07-23T05:53:55.841Z,20.20
2018-07-23T05:56:23.927Z,20.30
2018-07-23T05:58:51.979Z,20.30
2018-07-23T06:01:20.301Z,20.40
2018-07-23T06:03:48.352Z,20.50
2018-07-23T06:06:16.445Z,20.60
2018-07-23T06:08:44.460Z,20.70
2018-07-23T06:11:12.503Z,20.80
2018-07-23T06:13:40.548Z,20.80
2018-07-23T06:16:08.812Z,20.80
2018-07-23T06:18:36.852Z,20.90
2018-07-23T06:21:05.086Z,20.90
2018-07-23T06:23:33.364Z,20.90
2018-07-23T06:26:01.468Z,20.90
2018-07-23T06:28:29.524Z,21.30
2018-07-23T06:30:57.601Z,22.20
2018-07-23T06:33:25.668Z,23.20
2018-07-23T06:35:53.773Z,24.40
2018-07-23T06:38:21.829Z,25.30
2018-07-23T06:40:49.895Z,26.10
2018-07-23T06:43:17.982Z,26.80
2018-07-23T06:45:46.036Z,27.50
2018-07-23T06:48:14.104Z,28.00
2018-07-23T06:50:42.173Z,28.60
2018-07-23T06:53:10.280Z,28.80
2018-07-23T06:55:38.348Z,29.10
2018-07-23T06:58:06.424Z,29.50
2018-07-23T07:00:34.544Z,29.80
2018-07-23T07:03:02.549Z,29.90
2018-07-23T07:05:30.617Z,29.80
2018-07-23T07:07:58.674Z,29.30
2018-07-23T07:10:26.745Z,28.90
2018-07-23T07:12:54.805Z,28.40
2018-07-23T07:15:22.880Z,27.90
2018-07-23T07:17:50.932Z,27.80
2018-07-23T07:20:18.989Z,27.70
2018-07-23T07:22:47.032Z,27.60
2018-07-23T07:25:15.078Z,27.70
2018-07-23T07:27:43.112Z,27.70
2018-07-23T07:30:11.155Z,27.70
2018-07-23T07:32:39.203Z,27.70
2018-07-23T07:35:07.240Z,27.60
2018-07-23T07:37:35.293Z,27.60
2018-07-23T07:40:03.339Z,27.60
2018-07-23T07:42:31.397Z,27.60
2018-07-23T07:44:59.441Z,27.50
2018-07-23T07:47:27.492Z,27.70
2018-07-23T07:49:55.536Z,27.90
2018-07-23T07:52:23.601Z,28.00
2018-07-23T07:54:51.625Z,28.10
2018-07-23T07:57:19.677Z,28.30
2018-07-23T07:59:47.793Z,28.40
2018-07-23T08:02:15.836Z,28.50
2018-07-23T08:04:43.872Z,28.70
2018-07-23T08:07:11.985Z,28.90
2018-07-23T08:09:39.966Z,29.20
2018-07-23T08:12:08.025Z,29.30
2018-07-23T08:14:36.067Z,29.40
2018-07-23T08:17:04.112Z,29.60
2018-07-23T08:19:32.168Z,29.90
2018-07-23T08:22:00.216Z,30.20
2018-07-23T08:24:28.257Z,30.30
2018-07-23T08:26:56.308Z,30.50
2018-07-23T08:29:24.352Z,30.60
2018-07-23T08:31:52.461Z,30.80
2018-07-23T08:34:20.448Z,31.00
2018-07-23T08:36:48.504Z,31.10
2018-07-23T08:39:16.552Z,31.30
2018-07-23T08:41:44.628Z,31.40
2018-07-23T08:44:12.692Z,31.60
2018-07-23T08:46:40.748Z,31.60
2018-07-23T08:49:08.792Z,31.60
2018-07-23T08:51:36.859Z,31.40
2018-07-23T08:54:04.905Z,31.50
2018-07-23T08:56:32.952Z,31.70
2018-07-23T08:59:00.993Z,31.70
2018-07-23T09:01:29.039Z,31.80
2018-07-23T09:03:57.130Z,32.10
2018-07-23T09:06:25.176Z,32.30
2018-07-23T09:08:53.229Z,32.50
2018-07-23T09:11:21.291Z,32.70
2018-07-23T09:13:49.335Z,32.90
2018-07-23T09:16:17.752Z,33.10
2018-07-23T09:18:45.800Z,33.30
2018-07-23T09:21:13.862Z,33.40
2018-07-23T09:23:41.937Z,33.50
2018-07-23T09:26:09.960Z,33.70
2018-07-23T09:28:38.020Z,33.90
2018-07-23T09:31:06.568Z,34.10
2018-07-23T09:33:34.592Z,34.20
2018-07-23T09:36:02.647Z,34.30
2018-07-23T09:38:30.687Z,34.30
2018-07-23T09:40:58.740Z,34.30
2018-07-23T09:43:26.796Z,34.10
2018-07-23T09:45:54.847Z,34.20
2018-07-23T09:48:22.904Z,34.10
2018-07-23T09:50:50.948Z,34.00
2018-07-23T09:53:19.004Z,34.10
2018-07-23T09:55:47.048Z,34.30
2018-07-23T09:58:15.117Z,34.40
2018-07-23T10:00:48.626Z,34.20
2018-07-23T10:03:16.836Z,34.20
2018-07-23T10:05:44.732Z,34.40
2018-07-23T10:10:40.641Z,35.00
2018-07-23T10:13:08.688Z,35.10
2018-07-23T10:15:36.748Z,35.10
2018-07-23T10:18:04.796Z,34.90
2018-07-23T10:20:32.869Z,34.90
2018-07-23T10:23:00.944Z,34.70
2018-07-23T10:25:29.016Z,35.00
2018-07-23T10:27:57.097Z,35.40
2018-07-23T10:30:25.164Z,35.70
2018-07-23T10:32:53.232Z,36.00
2018-07-23T10:35:21.652Z,36.00
2018-07-23T10:37:49.728Z,35.40
2018-07-23T10:42:45.857Z,34.80
2018-07-23T10:45:13.928Z,34.60
2018-07-23T10:47:42.007Z,34.80
2018-07-23T10:50:10.066Z,35.10
2018-07-23T10:55:05.996Z,34.40
2018-07-23T10:57:34.064Z,34.70
2018-07-23T11:00:02.144Z,35.30
2018-07-23T11:02:30.222Z,35.20
2018-07-23T11:04:58.392Z,35.50
2018-07-23T11:07:26.525Z,35.60
2018-07-23T11:09:54.529Z,35.50
2018-07-23T11:12:22.604Z,35.10
2018-07-23T11:14:50.664Z,34.80
2018-07-23T11:17:18.821Z,34.70
2018-07-23T11:19:47.018Z,35.00
2018-07-23T11:22:15.110Z,35.40
2018-07-23T11:24:45.620Z,35.50
2018-07-23T11:27:11.266Z,35.30
2018-07-23T11:29:39.617Z,35.20
2018-07-23T11:32:07.686Z,35.30
2018-07-23T11:34:35.701Z,35.00
2018-07-23T11:37:03.756Z,34.60
2018-07-23T11:39:31.827Z,34.10
2018-07-23T11:41:59.884Z,34.20
2018-07-23T11:44:27.956Z,34.30
2018-07-23T11:46:56.017Z,34.60
2018-07-23T11:49:24.080Z,34.80
2018-07-23T11:51:52.150Z,35.10
2018-07-23T11:54:20.220Z,34.80
2018-07-23T11:56:48.290Z,34.70
2018-07-23T11:59:16.368Z,34.90
2018-07-23T12:01:44.532Z,34.90
2018-07-23T12:04:12.549Z,35.40
2018-07-23T12:06:40.592Z,35.80
2018-07-23T12:09:10.049Z,36.10
2018-07-23T12:11:38.128Z,36.70
2018-07-23T12:14:06.728Z,37.10
2018-07-23T12:16:34.920Z,37.00
2018-07-23T12:19:02.975Z,36.60
2018-07-23T12:21:31.039Z,36.10
2018-07-23T12:23:59.100Z,36.30
2018-07-23T12:26:27.139Z,36.50
2018-07-23T12:28:55.218Z,37.00
2018-07-23T12:31:23.235Z,37.30
2018-07-23T12:33:51.280Z,37.00
2018-07-23T12:36:19.329Z,37.10
2018-07-23T12:38:47.372Z,37.40
2018-07-23T12:41:15.412Z,37.70
2018-07-23T12:43:43.464Z,37.60
2018-07-23T12:46:11.505Z,37.40
2018-07-23T12:48:39.552Z,37.30
2018-07-23T12:51:08.045Z,37.30
2018-07-23T12:53:36.084Z,37.20
2018-07-23T12:56:04.128Z,37.50
2018-07-23T12:58:32.177Z,37.40
2018-07-23T13:01:00.228Z,37.60
2018-07-23T13:03:28.270Z,37.80
2018-07-23T13:05:56.305Z,37.80
2018-07-23T13:08:24.348Z,37.70
2018-07-23T13:10:52.408Z,37.80
2018-07-23T13:13:20.455Z,37.80
2018-07-23T13:15:48.487Z,38.10
2018-07-23T13:18:16.528Z,38.20
2018-07-23T13:20:44.573Z,37.90
2018-07-23T13:23:12.636Z,38.10
2018-07-23T13:25:40.769Z,38.00
2018-07-23T13:28:08.760Z,37.70
2018-07-23T13:30:36.804Z,37.10
2018-07-23T13:33:04.876Z,37.10
2018-07-23T13:35:32.913Z,36.90
2018-07-23T13:38:01.050Z,36.70
2018-07-23T13:40:29.065Z,36.30
2018-07-23T13:42:57.232Z,36.40
2018-07-23T13:45:25.531Z,36.50
2018-07-23T13:47:53.560Z,36.70
2018-07-23T13:50:21.611Z,36.90
2018-07-23T13:52:49.648Z,37.10
2018-07-23T13:55:17.692Z,37.00
2018-07-23T13:57:45.739Z,37.00
2018-07-23T14:00:13.786Z,37.10
2018-07-23T14:02:41.859Z,37.20
2018-07-23T14:05:09.896Z,37.30
2018-07-23T14:07:37.932Z,37.40
2018-07-23T14:10:05.983Z,37.40
2018-07-23T14:12:34.020Z,37.20
2018-07-23T14:15:02.118Z,37.20
2018-07-23T14:17:30.107Z,37.20
2018-07-23T14:19:58.158Z,37.40
2018-07-23T14:22:26.209Z,37.60
2018-07-23T14:24:54.263Z,37.90
2018-07-23T14:27:22.292Z,37.90
2018-07-23T14:29:50.335Z,38.00
2018-07-23T14:32:18.372Z,38.10
2018-07-23T14:34:46.416Z,37.80
2018-07-23T14:37:14.447Z,37.40
2018-07-23T14:39:42.535Z,36.90
2018-07-23T14:42:10.534Z,36.40
2018-07-23T14:44:38.572Z,35.90
2018-07-23T14:47:06.612Z,35.70
2018-07-23T14:49:34.662Z,35.60
2018-07-23T14:52:02.713Z,35.70
2018-07-23T14:54:30.756Z,35.70
2018-07-23T14:56:58.800Z,35.70
2018-07-23T14:59:26.851Z,35.70
2018-07-23T15:01:54.893Z,35.70
2018-07-23T15:04:22.956Z,35.90
2018-07-23T15:06:50.992Z,35.90
2018-07-23T15:09:19.036Z,36.00
2018-07-23T15:11:47.076Z,35.80
2018-07-23T15:14:15.133Z,35.70
2018-07-23T15:16:43.167Z,35.40
2018-07-23T15:19:11.224Z,35.30
2018-07-23T15:21:39.289Z,35.20
2018-07-23T15:24:07.357Z,35.20
2018-07-23T15:26:35.496Z,35.20
2018-07-23T15:29:03.572Z,35.10
2018-07-23T15:31:31.640Z,35.10
2018-07-23T15:33:59.815Z,35.20
2018-07-23T15:36:27.876Z,35.00
2018-07-23T15:38:55.945Z,35.10
2018-07-23T15:41:23.992Z,35.10
2018-07-23T15:43:52.160Z,35.30
2018-07-23T15:46:20.207Z,35.30
2018-07-23T15:48:48.163Z,35.40
2018-07-23T15:51:16.230Z,35.40
2018-07-23T15:53:44.280Z,35.10
2018-07-23T15:56:12.356Z,34.90
2018-07-23T15:58:40.407Z,34.70
2018-07-23T16:01:08.468Z,34.60
2018-07-23T16:03:36.532Z,34.50
2018-07-23T16:06:05.016Z,34.30
2018-07-23T16:11:01.209Z,34.20
2018-07-23T16:13:29.278Z,34.20
2018-07-23T16:15:57.368Z,34.00
2018-07-23T16:18:25.539Z,33.90
2018-07-23T16:20:53.604Z,33.90
2018-07-23T16:23:21.656Z,34.00
2018-07-23T16:25:49.719Z,33.90
2018-07-23T16:28:17.784Z,33.80
2018-07-23T16:30:45.864Z,33.70
2018-07-23T16:33:13.923Z,33.60
2018-07-23T16:35:41.997Z,33.50
2018-07-23T16:38:10.077Z,33.50
2018-07-23T16:40:38.129Z,33.50
2018-07-23T16:43:06.184Z,33.40
2018-07-23T16:45:34.284Z,33.50
2018-07-23T16:48:02.352Z,33.40
2018-07-23T16:50:30.442Z,33.40
2018-07-23T16:52:58.499Z,33.40
2018-07-23T16:55:26.568Z,33.40
2018-07-23T16:57:54.629Z,33.40
2018-07-23T17:00:22.689Z,33.40
2018-07-23T17:02:50.748Z,33.20
2018-07-23T17:05:18.872Z,33.20
2018-07-23T17:07:46.907Z,33.10
2018-07-23T17:10:14.981Z,33.00
2018-07-23T17:12:43.040Z,32.80
2018-07-23T17:15:11.112Z,32.70
2018-07-23T17:17:39.180Z,32.50
2018-07-23T17:20:07.401Z,32.40
2018-07-23T17:22:35.471Z,32.30
2018-07-23T17:25:03.523Z,32.10
2018-07-23T17:27:31.564Z,32.00
2018-07-23T17:29:59.616Z,31.90
2018-07-23T17:32:27.653Z,31.80
2018-07-23T17:34:55.744Z,31.80
2018-07-23T17:37:23.797Z,31.70
2018-07-23T17:39:51.849Z,31.60
2018-07-23T17:42:19.889Z,31.50
2018-07-23T17:44:47.989Z,31.50
2018-07-23T17:47:15.992Z,31.30
2018-07-23T17:49:44.020Z,31.20
2018-07-23T17:52:12.073Z,31.10
2018-07-23T17:54:40.107Z,31.00
2018-07-23T17:57:08.183Z,30.90
2018-07-23T17:59:36.216Z,30.80
2018-07-23T18:02:04.260Z,30.70
2018-07-23T18:04:32.396Z,30.60
2018-07-23T18:07:00.424Z,30.50
2018-07-23T18:09:28.465Z,30.50
2018-07-23T18:11:56.517Z,30.40
2018-07-23T18:14:24.553Z,30.30
2018-07-23T18:16:52.616Z,30.20
2018-07-23T18:19:20.676Z,30.10
2018-07-23T18:21:49.568Z,30.10
2018-07-23T18:24:17.636Z,30.00
2018-07-23T18:26:45.696Z,29.90
2018-07-23T18:29:13.756Z,29.90
2018-07-23T18:31:41.820Z,29.80
2018-07-23T18:34:09.884Z,29.80
2018-07-23T18:36:37.952Z,29.60
2018-07-23T18:39:08.504Z,29.60
2018-07-23T18:41:36.959Z,29.50
2018-07-23T18:44:05.085Z,29.40
2018-07-23T18:46:33.145Z,29.30
2018-07-23T18:49:53.327Z,29.20
2018-07-23T18:52:21.940Z,29.10
2018-07-23T18:54:51.345Z,29.00
2018-07-23T18:57:19.417Z,28.80
2018-07-23T18:59:47.510Z,28.80
2018-07-23T19:02:16.731Z,28.70
2018-07-23T19:04:44.912Z,28.60
2018-07-23T19:07:13.007Z,28.50
2018-07-23T19:09:41.184Z,28.40
2018-07-23T19:12:09.725Z,28.30
2018-07-23T19:14:37.780Z,28.10
2018-07-23T19:17:07.085Z,28.00
2018-07-23T19:19:35.140Z,27.80
2018-07-23T19:22:03.221Z,27.70
2018-07-23T19:24:31.292Z,27.50
2018-07-23T19:26:59.392Z,27.40
2018-07-23T19:29:27.444Z,27.20
2018-07-23T19:31:55.517Z,27.10
2018-07-23T19:34:23.592Z,27.00
2018-07-23T19:36:51.655Z,26.80
2018-07-23T19:39:20.669Z,26.70
2018-07-23T19:41:48.747Z,26.70
2018-07-23T19:44:16.783Z,26.50
2018-07-23T19:46:45.488Z,26.40
2018-07-23T19:49:13.580Z,26.40
2018-07-23T19:51:41.692Z,26.20
2018-07-23T19:54:10.396Z,26.10
2018-07-23T19:56:38.456Z,26.00
2018-07-23T19:59:06.540Z,25.90
2018-07-23T20:01:34.761Z,25.80
2018-07-23T20:04:02.833Z,25.70
2018-07-23T20:06:30.892Z,25.70
2018-07-23T20:08:59.938Z,25.60
2018-07-23T20:11:28.744Z,25.50
2018-07-23T20:13:56.816Z,25.40
2018-07-23T20:16:24.877Z,25.30
2018-07-23T20:18:52.927Z,25.30
2018-07-23T20:21:20.996Z,25.20
2018-07-23T20:23:49.057Z,25.10
2018-07-23T20:26:17.125Z,25.00
2018-07-23T20:28:45.240Z,25.00
2018-07-23T20:31:13.328Z,24.90
2018-07-23T20:33:41.388Z,24.80
2018-07-23T20:36:09.466Z,24.70
2018-07-23T20:38:37.520Z,24.60
2018-07-23T20:41:05.620Z,24.50
2018-07-23T20:43:34.048Z,24.40
2018-07-23T20:46:02.436Z,24.30
2018-07-23T20:48:30.516Z,24.30
2018-07-23T20:50:58.564Z,24.20
2018-07-23T20:53:26.624Z,24.20
2018-07-23T20:55:54.687Z,24.10
2018-07-23T20:58:23.172Z,24.10
2018-07-23T21:00:52.076Z,24.00
2018-07-23T21:03:20.168Z,24.00
2018-07-23T21:05:48.306Z,23.90
2018-07-23T21:08:16.380Z,23.90
2018-07-23T21:10:44.508Z,23.80
2018-07-23T21:13:12.570Z,23.80
2018-07-23T21:15:40.636Z,23.70
2018-07-23T21:18:08.980Z,23.60
2018-07-23T21:20:37.416Z,23.60
2018-07-23T21:23:05.916Z,23.50
2018-07-23T21:25:34.044Z,23.40
2018-07-23T21:28:02.108Z,23.30
2018-07-23T21:30:30.168Z,23.20
2018-07-23T21:32:58.233Z,23.10
2018-07-23T21:35:26.291Z,23.00
2018-07-23T21:37:54.449Z,23.00
2018-07-23T21:40:22.576Z,22.90
2018-07-23T21:42:50.648Z,22.90
2018-07-23T21:45:18.704Z,22.80
2018-07-23T21:47:46.777Z,22.80
2018-07-23T21:50:14.836Z,22.80
2018-07-23T21:52:42.905Z,22.70
2018-07-23T21:55:10.972Z,22.60
2018-07-23T21:57:39.076Z,22.60
2018-07-23T22:00:10.552Z,22.50
2018-07-23T22:02:38.801Z,22.50
2018-07-23T22:05:06.871Z,22.40
2018-07-23T22:07:34.972Z,22.30
2018-07-23T22:10:03.144Z,22.30
2018-07-23T22:12:31.203Z,22.20
2018-07-23T22:14:59.266Z,22.20
2018-07-23T22:17:27.319Z,22.10
2018-07-23T22:19:55.369Z,22.10
2018-07-23T22:22:23.420Z,22.10
2018-07-23T22:24:51.452Z,22.10
2018-07-23T22:27:19.539Z,22.10
2018-07-23T22:29:47.580Z,22.00
2018-07-23T22:32:15.635Z,22.00
2018-07-23T22:34:43.688Z,21.90
2018-07-23T22:37:11.729Z,21.80
2018-07-23T22:42:07.688Z,21.70
2018-07-23T22:44:35.697Z,21.70
2018-07-23T22:47:03.741Z,21.70
2018-07-23T22:49:31.795Z,21.70
2018-07-23T22:51:59.844Z,21.70
2018-07-23T22:54:27.900Z,21.60
2018-07-23T22:56:55.952Z,21.60
2018-07-23T22:59:23.996Z,21.60
2018-07-23T23:01:52.036Z,21.50
2018-07-23T23:04:20.088Z,21.50
2018-07-23T23:06:48.136Z,21.50
2018-07-23T23:09:16.192Z,21.40
2018-07-23T23:11:44.223Z,21.40
2018-07-23T23:14:12.321Z,21.30
2018-07-23T23:16:40.360Z,21.30
2018-07-23T23:19:08.477Z,21.20
2018-07-23T23:21:36.528Z,21.20
2018-07-23T23:24:04.617Z,21.20
2018-07-23T23:26:32.655Z,21.20
2018-07-23T23:29:00.856Z,21.10
2018-07-23T23:31:29.133Z,21.10
2018-07-23T23:33:57.189Z,21.10
2018-07-23T23:36:25.229Z,21.00
2018-07-23T23:38:53.280Z,21.00
2018-07-23T23:41:21.333Z,21.00
2018-07-23T23:43:49.391Z,21.00
2018-07-23T23:46:17.448Z,21.00
2018-07-23T23:48:45.499Z,20.90
2018-07-23T23:51:13.551Z,20.90
2018-07-23T23:53:41.596Z,20.80
2018-07-23T23:56:09.633Z,20.80
